createdAt,value
2022-10-07T00:00:39.714Z,63.33
2022-10-07T00:01:42.081Z,63.30
2022-10-07T00:02:44.692Z,63.36
2022-10-07T00:03:47.081Z,63.50
2022-10-07T00:04:49.428Z,63.44
2022-10-07T00:06:24.081Z,63.43
2022-10-07T00:07:26.402Z,63.49
2022-10-07T00:08:30.118Z,63.52
2022-10-07T00:09:32.463Z,63.48
2022-10-07T00:10:40.966Z,63.50
2022-10-07T00:11:43.448Z,63.57
2022-10-07T00:12:45.790Z,63.55
2022-10-07T00:13:52.092Z,63.73
2022-10-07T00:14:54.631Z,63.64
2022-10-07T00:16:03.799Z,63.77
2022-10-07T00:17:08.617Z,63.79
2022-10-07T00:18:11.223Z,63.50
2022-10-07T00:19:16.455Z,63.60
2022-10-07T00:20:18.866Z,63.42
2022-10-07T00:21:21.190Z,63.54
2022-10-07T00:22:23.802Z,63.69
2022-10-07T00:23:26.119Z,63.67
2022-10-07T00:24:28.591Z,63.65
2022-10-07T00:25:31.002Z,63.83
2022-10-07T00:26:35.364Z,63.77
2022-10-07T00:27:37.680Z,63.66
2022-10-07T00:28:40.211Z,63.88
2022-10-07T00:29:42.610Z,63.82
2022-10-07T00:30:44.999Z,63.87
2022-10-07T00:31:48.304Z,63.95
2022-10-07T00:32:50.670Z,63.97
2022-10-07T00:33:54.761Z,63.87
2022-10-07T00:34:57.071Z,63.83
2022-10-07T00:35:59.481Z,64.09
2022-10-07T00:37:01.727Z,64.04
2022-10-07T00:38:03.951Z,64.00
2022-10-07T00:39:10.390Z,64.20
2022-10-07T00:40:13.462Z,64.15
2022-10-07T00:41:22.562Z,64.05
2022-10-07T00:42:24.853Z,64.06
2022-10-07T00:43:32.516Z,64.20
2022-10-07T00:44:48.835Z,64.27
2022-10-07T00:45:57.550Z,64.19
2022-10-07T00:47:03.515Z,64.16
2022-10-07T00:48:05.742Z,64.09
2022-10-07T00:49:14.085Z,64.16
2022-10-07T00:50:21.027Z,64.23
2022-10-07T00:51:27.100Z,64.12
2022-10-07T00:52:33.764Z,64.22
2022-10-07T00:53:39.636Z,64.14
2022-10-07T00:54:43.350Z,64.11
2022-10-07T00:55:48.141Z,64.09
2022-10-07T00:56:52.090Z,64.20
2022-10-07T00:57:59.218Z,64.17
2022-10-07T00:59:02.097Z,64.06
2022-10-07T01:00:06.736Z,64.06
2022-10-07T01:01:09.509Z,64.04
2022-10-07T01:02:15.398Z,64.19
2022-10-07T01:03:17.708Z,64.12
2022-10-07T01:04:20.388Z,64.13
2022-10-07T01:05:22.657Z,64.16
2022-10-07T01:06:24.915Z,64.08
2022-10-07T01:07:31.794Z,64.03
2022-10-07T01:08:34.488Z,64.24
2022-10-07T01:09:36.930Z,64.35
2022-10-07T01:11:16.283Z,64.05
2022-10-07T01:12:39.970Z,64.15
2022-10-07T01:14:15.866Z,64.13
2022-10-07T01:15:30.316Z,64.13
2022-10-07T01:16:58.886Z,64.10
2022-10-07T01:18:17.606Z,64.07
2022-10-07T01:19:37.097Z,64.18
2022-10-07T01:21:10.726Z,64.19
2022-10-07T01:22:56.549Z,64.14
2022-10-07T01:24:26.331Z,64.22
2022-10-07T01:25:34.491Z,64.21
2022-10-07T01:26:47.818Z,64.27
2022-10-07T01:28:01.203Z,64.19
2022-10-07T01:29:11.969Z,64.33
2022-10-07T01:30:14.285Z,64.38
2022-10-07T01:31:21.729Z,64.38
2022-10-07T01:32:47.953Z,64.53
2022-10-07T01:33:54.085Z,64.46
2022-10-07T01:35:01.295Z,64.53
2022-10-07T01:36:12.876Z,64.60
2022-10-07T01:37:17.944Z,64.65
2022-10-07T01:38:26.323Z,64.72
2022-10-07T01:39:34.525Z,64.72
2022-10-07T01:40:44.321Z,64.70
2022-10-07T01:41:47.311Z,64.70
2022-10-07T01:42:52.004Z,64.72
2022-10-07T01:43:59.100Z,64.69
2022-10-07T01:45:10.100Z,64.71
2022-10-07T01:46:18.539Z,64.66
2022-10-07T01:47:20.995Z,64.71
2022-10-07T01:48:23.850Z,64.83
2022-10-07T01:49:26.826Z,64.78
2022-10-07T01:50:30.937Z,64.81
2022-10-07T01:51:38.947Z,64.81
2022-10-07T01:53:12.836Z,64.81
2022-10-07T01:54:50.554Z,64.69
2022-10-07T01:55:55.751Z,64.80
2022-10-07T01:57:10.020Z,64.88
2022-10-07T01:58:50.817Z,64.83
2022-10-07T02:00:01.530Z,64.86
2022-10-07T02:01:38.776Z,64.88
2022-10-07T02:03:21.493Z,64.79
2022-10-07T02:04:59.267Z,64.89
2022-10-07T02:06:32.919Z,64.95
2022-10-07T02:07:51.432Z,64.99
2022-10-07T02:08:56.907Z,64.96
2022-10-07T02:10:27.480Z,64.99
2022-10-07T02:11:37.834Z,65.03
2022-10-07T02:12:47.015Z,64.86
2022-10-07T02:14:01.482Z,65.02
2022-10-07T02:15:19.704Z,64.96
2022-10-07T02:16:31.532Z,65.11
2022-10-07T02:17:42.642Z,65.18
2022-10-07T02:18:50.518Z,65.27
2022-10-07T02:19:56.634Z,65.19
2022-10-07T02:21:04.132Z,65.08
2022-10-07T02:22:09.316Z,65.13
2022-10-07T02:23:14.439Z,65.21
2022-10-07T02:24:21.413Z,65.37
2022-10-07T02:25:27.594Z,65.17
2022-10-07T02:26:32.534Z,65.11
2022-10-07T02:27:38.192Z,65.31
2022-10-07T02:28:45.275Z,65.23
2022-10-07T02:29:51.482Z,65.11
2022-10-07T02:31:01.495Z,65.37
2022-10-07T02:32:13.608Z,65.38
2022-10-07T02:33:19.317Z,65.19
2022-10-07T02:34:24.764Z,65.21
2022-10-07T02:35:33.001Z,65.37
2022-10-07T02:36:41.107Z,65.30
2022-10-07T02:37:47.951Z,65.40
2022-10-07T02:38:50.343Z,65.25
2022-10-07T02:39:55.737Z,65.26
2022-10-07T02:41:35.726Z,65.41
2022-10-07T02:42:52.925Z,65.38
2022-10-07T02:44:17.983Z,65.46
2022-10-07T02:45:28.488Z,65.32
2022-10-07T02:46:38.322Z,65.44
2022-10-07T02:47:47.858Z,65.28
2022-10-07T02:49:08.547Z,65.51
2022-10-07T02:50:14.979Z,65.38
2022-10-07T02:51:21.646Z,65.40
2022-10-07T02:52:31.414Z,65.39
2022-10-07T02:53:35.372Z,65.46
2022-10-07T02:55:04.503Z,65.34
2022-10-07T02:56:07.523Z,65.37
2022-10-07T02:57:13.475Z,65.33
2022-10-07T02:58:17.583Z,65.35
2022-10-07T02:59:22.027Z,65.42
2022-10-07T03:00:24.725Z,65.43
2022-10-07T03:01:32.073Z,65.63
2022-10-07T03:02:49.161Z,65.52
2022-10-07T03:03:53.969Z,65.43
2022-10-07T03:04:58.753Z,65.46
2022-10-07T03:06:01.361Z,65.54
2022-10-07T03:07:10.770Z,65.69
2022-10-07T03:08:13.211Z,65.61
2022-10-07T03:09:17.437Z,65.65
2022-10-07T03:10:19.794Z,65.47
2022-10-07T03:11:22.063Z,65.51
2022-10-07T03:12:24.419Z,65.65
2022-10-07T03:13:26.683Z,65.63
2022-10-07T03:14:35.853Z,65.67
2022-10-07T03:15:42.638Z,65.51
2022-10-07T03:16:47.805Z,65.58
2022-10-07T03:17:50.051Z,65.62
2022-10-07T03:18:52.734Z,65.64
2022-10-07T03:20:00.827Z,65.67
2022-10-07T03:21:03.874Z,65.59
2022-10-07T03:22:06.058Z,65.60
2022-10-07T03:23:14.028Z,65.62
2022-10-07T03:24:18.668Z,65.66
2022-10-07T03:25:22.855Z,65.66
2022-10-07T03:26:25.094Z,65.70
2022-10-07T03:27:28.925Z,65.67
2022-10-07T03:28:35.437Z,65.68
2022-10-07T03:29:38.140Z,65.85
2022-10-07T03:30:41.098Z,65.60
2022-10-07T03:31:43.478Z,65.81
2022-10-07T03:32:46.229Z,65.84
2022-10-07T03:33:48.708Z,65.77
2022-10-07T03:34:51.587Z,65.64
2022-10-07T03:35:54.016Z,65.71
2022-10-07T03:36:56.341Z,65.89
2022-10-07T03:37:58.568Z,65.83
2022-10-07T03:39:00.940Z,65.88
2022-10-07T03:40:04.571Z,65.78
2022-10-07T03:41:06.910Z,65.74
2022-10-07T03:42:09.632Z,65.86
2022-10-07T03:43:12.304Z,65.86
2022-10-07T03:44:14.817Z,65.89
2022-10-07T03:45:19.333Z,65.87
2022-10-07T03:46:21.590Z,65.95
2022-10-07T03:47:25.029Z,65.87
2022-10-07T03:48:27.243Z,65.86
2022-10-07T03:49:29.699Z,66.01
2022-10-07T03:50:31.953Z,65.88
2022-10-07T03:51:38.687Z,65.87
2022-10-07T03:52:45.723Z,65.92
2022-10-07T03:53:48.805Z,65.76
2022-10-07T03:54:53.318Z,66.03
2022-10-07T03:55:56.060Z,66.16
2022-10-07T03:56:58.429Z,66.19
2022-10-07T03:58:01.335Z,66.26
2022-10-07T03:59:04.872Z,66.20
2022-10-07T04:00:07.913Z,66.28
2022-10-07T04:01:17.550Z,66.40
2022-10-07T04:02:23.958Z,66.44
2022-10-07T04:03:26.367Z,66.49
2022-10-07T04:04:28.678Z,66.40
2022-10-07T04:05:32.829Z,66.49
2022-10-07T04:06:35.591Z,66.63
2022-10-07T04:07:44.070Z,66.60
2022-10-07T04:08:46.414Z,66.52
2022-10-07T04:09:49.293Z,66.64
2022-10-07T04:10:54.498Z,66.66
2022-10-07T04:11:56.666Z,66.69
2022-10-07T04:12:59.035Z,66.74
2022-10-07T04:14:01.555Z,66.61
2022-10-07T04:15:05.358Z,66.61
2022-10-07T04:16:08.760Z,66.68
2022-10-07T04:17:11.483Z,66.59
2022-10-07T04:18:13.748Z,66.75
2022-10-07T04:19:16.725Z,66.59
2022-10-07T04:20:19.040Z,66.59
2022-10-07T04:21:22.609Z,66.64
2022-10-07T04:22:26.036Z,66.52
2022-10-07T04:23:28.417Z,66.69
2022-10-07T04:24:30.745Z,66.66
2022-10-07T04:25:38.099Z,66.67
2022-10-07T04:26:45.408Z,66.75
2022-10-07T04:27:53.993Z,66.76
2022-10-07T04:29:00.225Z,66.94
2022-10-07T04:30:04.102Z,66.78
2022-10-07T04:31:09.023Z,66.83
2022-10-07T04:32:15.045Z,66.70
2022-10-07T04:33:19.299Z,66.77
2022-10-07T04:34:21.518Z,66.75
2022-10-07T04:35:23.972Z,66.70
2022-10-07T04:36:28.723Z,66.74
2022-10-07T04:37:44.196Z,66.75
2022-10-07T04:38:53.124Z,66.89
2022-10-07T04:40:01.240Z,66.91
2022-10-07T04:41:08.221Z,66.74
2022-10-07T04:42:32.273Z,66.80
2022-10-07T04:43:35.192Z,66.90
2022-10-07T04:44:41.538Z,66.94
2022-10-07T04:45:43.793Z,67.05
2022-10-07T04:46:46.011Z,66.97
2022-10-07T04:47:50.249Z,67.04
2022-10-07T04:48:54.801Z,66.99
2022-10-07T04:50:00.118Z,66.92
2022-10-07T04:51:04.458Z,67.00
2022-10-07T04:52:06.967Z,66.99
2022-10-07T04:53:18.366Z,66.99
2022-10-07T04:54:21.810Z,67.09
2022-10-07T04:55:28.468Z,67.10
2022-10-07T04:56:31.516Z,67.04
2022-10-07T04:57:35.016Z,67.05
2022-10-07T04:58:37.531Z,67.04
2022-10-07T04:59:43.055Z,67.06
2022-10-07T05:00:55.828Z,67.06
2022-10-07T05:02:02.259Z,67.10
2022-10-07T05:03:05.527Z,67.16
2022-10-07T05:04:11.814Z,67.23
2022-10-07T05:05:20.338Z,67.27
2022-10-07T05:06:22.928Z,67.16
2022-10-07T05:07:26.029Z,67.09
2022-10-07T05:08:28.578Z,67.21
2022-10-07T05:09:32.234Z,67.19
2022-10-07T05:10:39.874Z,67.11
2022-10-07T05:11:42.385Z,67.30
2022-10-07T05:12:55.715Z,67.33
2022-10-07T05:13:58.735Z,67.18
2022-10-07T05:15:03.178Z,67.26
2022-10-07T05:16:07.700Z,67.33
2022-10-07T05:17:10.737Z,67.29
2022-10-07T05:18:13.100Z,67.33
2022-10-07T05:19:15.614Z,67.28
2022-10-07T05:20:18.029Z,67.29
2022-10-07T05:21:20.313Z,67.29
2022-10-07T05:22:23.837Z,67.36
2022-10-07T05:23:28.950Z,67.43
2022-10-07T05:24:34.206Z,67.21
2022-10-07T05:25:37.497Z,67.35
2022-10-07T05:26:39.747Z,67.51
2022-10-07T05:27:44.094Z,67.56
2022-10-07T05:28:51.323Z,67.54
2022-10-07T05:29:59.659Z,67.52
2022-10-07T05:31:07.855Z,67.73
2022-10-07T05:32:13.230Z,67.66
2022-10-07T05:33:16.840Z,67.49
2022-10-07T05:34:20.392Z,67.48
2022-10-07T05:35:22.876Z,67.51
2022-10-07T05:36:25.182Z,67.49
2022-10-07T05:37:29.949Z,67.51
2022-10-07T05:38:33.926Z,67.47
2022-10-07T05:39:37.355Z,67.70
2022-10-07T05:40:45.573Z,67.79
2022-10-07T05:41:48.294Z,67.79
2022-10-07T05:42:56.230Z,67.90
2022-10-07T05:44:00.352Z,67.97
2022-10-07T05:45:04.408Z,67.95
2022-10-07T05:46:11.584Z,68.22
2022-10-07T05:47:18.456Z,68.15
2022-10-07T05:48:21.833Z,68.10
2022-10-07T05:49:24.560Z,68.09
2022-10-07T05:50:26.778Z,68.07
2022-10-07T05:51:29.028Z,68.12
2022-10-07T05:52:34.905Z,68.21
2022-10-07T05:53:41.413Z,68.08
2022-10-07T05:54:44.123Z,68.04
2022-10-07T05:55:47.971Z,67.88
2022-10-07T05:56:58.455Z,67.84
2022-10-07T05:58:00.799Z,67.79
2022-10-07T05:59:03.666Z,67.71
2022-10-07T06:00:07.364Z,67.62
2022-10-07T06:01:18.242Z,67.47
2022-10-07T06:02:20.603Z,67.42
2022-10-07T06:03:26.059Z,67.29
2022-10-07T06:04:31.374Z,67.15
2022-10-07T06:05:36.282Z,67.38
2022-10-07T06:06:38.839Z,67.18
2022-10-07T06:07:44.639Z,67.18
2022-10-07T06:08:48.157Z,67.20
2022-10-07T06:10:09.209Z,67.19
2022-10-07T06:11:34.255Z,67.12
2022-10-07T06:12:56.465Z,67.14
2022-10-07T06:13:59.422Z,67.05
2022-10-07T06:15:01.898Z,67.07
2022-10-07T06:16:09.439Z,66.82
2022-10-07T06:17:11.709Z,66.84
2022-10-07T06:18:15.350Z,66.78
2022-10-07T06:19:22.894Z,66.71
2022-10-07T06:20:27.956Z,66.48
2022-10-07T06:21:32.097Z,66.37
2022-10-07T06:22:38.189Z,66.32
2022-10-07T06:23:40.598Z,66.06
2022-10-07T06:24:43.551Z,65.91
2022-10-07T06:25:55.259Z,65.71
2022-10-07T06:26:59.424Z,65.71
2022-10-07T06:28:05.875Z,65.39
2022-10-07T06:29:09.051Z,65.23
2022-10-07T06:30:14.142Z,65.09
2022-10-07T06:31:22.497Z,65.07
2022-10-07T06:32:27.492Z,64.95
2022-10-07T06:33:29.674Z,64.96
2022-10-07T06:34:32.143Z,65.00
2022-10-07T06:35:34.380Z,64.88
2022-10-07T06:36:36.571Z,64.73
2022-10-07T06:37:39.441Z,64.67
2022-10-07T06:38:50.632Z,64.29
2022-10-07T06:39:59.505Z,64.64
2022-10-07T06:41:07.769Z,64.63
2022-10-07T06:42:10.713Z,64.33
2022-10-07T06:43:35.114Z,64.35
2022-10-07T06:44:40.814Z,63.88
2022-10-07T06:45:45.933Z,63.92
2022-10-07T06:46:51.687Z,63.49
2022-10-07T06:47:57.417Z,63.46
2022-10-07T06:48:59.600Z,63.31
2022-10-07T06:50:02.149Z,63.12
2022-10-07T06:51:04.863Z,63.09
2022-10-07T06:52:08.611Z,63.15
2022-10-07T06:53:11.712Z,63.11
2022-10-07T06:54:17.164Z,62.80
2022-10-07T06:55:19.869Z,62.21
2022-10-07T06:56:22.705Z,62.07
2022-10-07T06:57:44.703Z,62.02
2022-10-07T06:58:49.968Z,61.68
2022-10-07T06:59:58.048Z,61.11
2022-10-07T07:01:04.418Z,60.67
2022-10-07T07:02:07.220Z,60.74
2022-10-07T07:03:13.564Z,60.48
2022-10-07T07:04:15.868Z,60.48
2022-10-07T07:05:18.140Z,60.16
2022-10-07T07:06:22.138Z,59.76
2022-10-07T07:07:25.033Z,59.25
2022-10-07T07:08:29.311Z,58.74
2022-10-07T07:09:32.059Z,58.87
2022-10-07T07:10:42.977Z,58.66
2022-10-07T07:11:50.869Z,58.52
2022-10-07T07:12:58.645Z,57.75
2022-10-07T07:14:01.555Z,57.56
2022-10-07T07:15:07.329Z,56.95
2022-10-07T07:16:09.586Z,56.68
2022-10-07T07:17:12.371Z,56.21
2022-10-07T07:18:14.766Z,56.08
2022-10-07T07:19:17.139Z,55.99
2022-10-07T07:20:19.477Z,55.96
2022-10-07T07:21:23.021Z,55.67
2022-10-07T07:22:25.514Z,55.41
2022-10-07T07:23:28.470Z,55.09
2022-10-07T07:24:31.189Z,54.94
2022-10-07T07:25:38.786Z,54.29
2022-10-07T07:26:42.025Z,54.06
2022-10-07T07:27:50.313Z,53.85
2022-10-07T07:29:09.285Z,53.54
2022-10-07T07:30:22.104Z,53.53
2022-10-07T07:31:26.921Z,53.37
2022-10-07T07:32:30.283Z,52.90
2022-10-07T07:33:33.046Z,52.60
2022-10-07T07:34:38.352Z,52.44
2022-10-07T07:35:44.964Z,52.20
2022-10-07T07:36:51.209Z,52.27
2022-10-07T07:37:54.837Z,51.96
2022-10-07T07:39:09.836Z,51.76
2022-10-07T07:40:12.342Z,51.07
2022-10-07T07:41:22.725Z,50.89
2022-10-07T07:42:25.046Z,50.66
2022-10-07T07:43:27.371Z,50.51
2022-10-07T07:44:34.073Z,50.15
2022-10-07T07:45:38.035Z,50.29
2022-10-07T07:46:44.165Z,49.62
2022-10-07T07:47:49.606Z,49.60
2022-10-07T07:48:53.614Z,49.50
2022-10-07T07:49:56.116Z,49.23
2022-10-07T07:51:08.999Z,48.64
2022-10-07T07:52:11.224Z,48.88
2022-10-07T07:53:18.190Z,48.71
2022-10-07T07:54:20.651Z,48.00
2022-10-07T07:55:27.658Z,47.56
2022-10-07T07:56:32.221Z,47.42
2022-10-07T07:57:36.603Z,46.88
2022-10-07T07:58:42.247Z,47.19
2022-10-07T07:59:44.938Z,46.81
2022-10-07T08:01:06.721Z,46.67
2022-10-07T08:02:12.402Z,46.41
2022-10-07T08:03:17.213Z,46.24
2022-10-07T08:04:19.497Z,46.24
2022-10-07T08:05:24.111Z,46.26
2022-10-07T08:06:30.331Z,46.29
2022-10-07T08:07:35.558Z,46.16
2022-10-07T08:08:42.280Z,45.64
2022-10-07T08:09:45.723Z,45.68
2022-10-07T08:10:51.767Z,45.61
2022-10-07T08:11:54.387Z,45.74
2022-10-07T08:12:56.921Z,45.24
2022-10-07T08:13:59.906Z,45.37
2022-10-07T08:15:03.272Z,44.87
2022-10-07T08:16:06.487Z,44.90
2022-10-07T08:17:09.102Z,44.47
2022-10-07T08:18:11.455Z,44.22
2022-10-07T08:19:13.715Z,43.74
2022-10-07T08:20:16.795Z,43.66
2022-10-07T08:21:29.611Z,43.74
2022-10-07T08:22:33.817Z,43.65
2022-10-07T08:23:36.762Z,43.17
2022-10-07T08:24:38.992Z,42.83
2022-10-07T08:25:41.274Z,42.61
2022-10-07T08:26:43.598Z,42.78
2022-10-07T08:27:49.186Z,42.42
2022-10-07T08:28:51.743Z,41.91
2022-10-07T08:29:54.336Z,41.88
2022-10-07T08:31:08.515Z,42.23
2022-10-07T08:32:10.868Z,42.39
2022-10-07T08:33:13.112Z,42.72
2022-10-07T08:34:15.609Z,42.85
2022-10-07T08:35:17.825Z,42.80
2022-10-07T08:36:27.098Z,42.67
2022-10-07T08:37:30.202Z,42.13
2022-10-07T08:38:34.877Z,42.05
2022-10-07T08:39:37.038Z,42.08
2022-10-07T08:40:47.601Z,42.10
2022-10-07T08:42:13.374Z,41.92
2022-10-07T08:43:17.395Z,42.21
2022-10-07T08:44:33.155Z,42.35
2022-10-07T08:45:35.566Z,42.24
2022-10-07T08:46:41.629Z,41.91
2022-10-07T08:47:46.111Z,42.08
2022-10-07T08:48:58.367Z,42.46
2022-10-07T08:50:19.490Z,42.93
2022-10-07T08:51:30.038Z,42.35
2022-10-07T08:52:39.259Z,42.62
2022-10-07T08:53:47.713Z,42.25
2022-10-07T08:54:50.215Z,41.86
2022-10-07T08:55:56.575Z,41.74
2022-10-07T08:57:07.404Z,41.98
2022-10-07T08:58:25.002Z,41.88
2022-10-07T08:59:33.229Z,41.28
2022-10-07T09:00:50.334Z,40.94
2022-10-07T09:02:17.525Z,40.69
2022-10-07T09:04:08.039Z,41.11
2022-10-07T09:05:24.381Z,40.92
2022-10-07T09:06:55.480Z,40.84
2022-10-07T09:08:01.896Z,40.17
2022-10-07T09:09:15.155Z,40.47
2022-10-07T09:10:32.394Z,40.82
2022-10-07T09:11:42.540Z,40.10
2022-10-07T09:12:51.869Z,40.14
2022-10-07T09:14:12.626Z,40.53
2022-10-07T09:15:20.479Z,40.05
2022-10-07T09:16:32.498Z,40.31
2022-10-07T09:17:46.306Z,40.40
2022-10-07T09:18:54.197Z,40.44
2022-10-07T09:20:06.281Z,40.38
2022-10-07T09:21:25.665Z,40.28
2022-10-07T09:22:34.386Z,39.89
2022-10-07T09:23:37.016Z,39.54
2022-10-07T09:24:39.499Z,39.66
2022-10-07T09:25:42.365Z,39.73
2022-10-07T09:26:44.708Z,39.68
2022-10-07T09:27:48.926Z,39.63
2022-10-07T09:28:51.194Z,39.20
2022-10-07T09:29:53.396Z,38.94
2022-10-07T09:30:58.368Z,38.67
2022-10-07T09:32:00.628Z,39.26
2022-10-07T09:33:05.599Z,39.41
2022-10-07T09:34:19.805Z,38.75
2022-10-07T09:35:27.303Z,39.22
2022-10-07T09:36:29.508Z,39.13
2022-10-07T09:37:31.813Z,39.06
2022-10-07T09:38:43.072Z,38.46
2022-10-07T09:39:47.313Z,38.60
2022-10-07T09:41:08.754Z,38.27
2022-10-07T09:42:21.938Z,38.56
2022-10-07T09:43:24.815Z,37.86
2022-10-07T09:44:29.427Z,38.04
2022-10-07T09:45:32.926Z,37.40
2022-10-07T09:46:46.679Z,37.73
2022-10-07T09:47:54.166Z,37.72
2022-10-07T09:48:56.526Z,38.42
2022-10-07T09:49:59.977Z,38.11
2022-10-07T09:51:16.593Z,38.32
2022-10-07T09:52:23.422Z,38.16
2022-10-07T09:53:32.093Z,38.67
2022-10-07T09:54:36.640Z,38.51
2022-10-07T09:55:41.045Z,38.31
2022-10-07T09:56:45.883Z,38.48
2022-10-07T09:58:00.895Z,38.26
2022-10-07T09:59:25.995Z,38.05
2022-10-07T10:00:31.225Z,37.48
2022-10-07T10:01:33.490Z,37.52
2022-10-07T10:02:36.051Z,37.33
2022-10-07T10:03:38.668Z,37.02
2022-10-07T10:04:48.012Z,37.15
2022-10-07T10:06:01.161Z,37.25
2022-10-07T10:07:20.438Z,37.53
2022-10-07T10:08:34.705Z,37.13
2022-10-07T10:09:39.570Z,36.98
2022-10-07T10:10:51.821Z,37.16
2022-10-07T10:12:02.560Z,36.91
2022-10-07T10:13:09.997Z,36.86
2022-10-07T10:14:29.278Z,37.39
2022-10-07T10:15:42.992Z,37.00
2022-10-07T10:16:46.975Z,36.93
2022-10-07T10:17:50.204Z,36.97
2022-10-07T10:19:26.375Z,37.06
2022-10-07T10:20:28.756Z,36.81
2022-10-07T10:21:39.421Z,36.14
2022-10-07T10:22:41.662Z,36.16
2022-10-07T10:23:53.111Z,36.28
2022-10-07T10:25:18.128Z,36.20
2022-10-07T10:26:37.757Z,36.62
2022-10-07T10:27:44.478Z,36.55
2022-10-07T10:28:52.479Z,36.51
2022-10-07T10:30:21.431Z,36.55
2022-10-07T10:31:54.621Z,36.85
2022-10-07T10:33:25.181Z,37.18
2022-10-07T10:34:38.575Z,36.97
2022-10-07T10:35:53.107Z,36.82
2022-10-07T10:37:05.189Z,36.92
2022-10-07T10:38:30.478Z,37.14
2022-10-07T10:39:35.440Z,36.46
2022-10-07T10:40:41.929Z,36.71
2022-10-07T10:41:53.889Z,36.91
2022-10-07T10:43:29.308Z,37.48
2022-10-07T10:44:47.121Z,37.76
2022-10-07T10:46:01.925Z,37.33
2022-10-07T10:47:14.916Z,37.26
2022-10-07T10:48:44.348Z,37.48
2022-10-07T10:50:06.168Z,37.34
2022-10-07T10:51:28.177Z,37.04
2022-10-07T10:52:34.866Z,37.00
2022-10-07T10:53:51.814Z,37.31
2022-10-07T10:55:24.728Z,37.64
2022-10-07T10:56:51.235Z,37.49
2022-10-07T10:58:21.553Z,37.94
2022-10-07T10:59:38.904Z,38.05
2022-10-07T11:01:09.755Z,38.15
2022-10-07T11:02:35.160Z,38.14
2022-10-07T11:04:02.149Z,37.83
2022-10-07T11:05:18.845Z,37.98
2022-10-07T11:06:22.585Z,37.64
2022-10-07T11:07:37.643Z,37.76
2022-10-07T11:08:40.238Z,37.92
2022-10-07T11:09:57.342Z,37.38
2022-10-07T11:11:07.340Z,37.88
2022-10-07T11:12:41.097Z,38.38
2022-10-07T11:13:52.821Z,38.14
2022-10-07T11:15:02.111Z,38.60
2022-10-07T11:16:21.649Z,38.90
2022-10-07T11:17:30.821Z,38.39
2022-10-07T11:18:45.831Z,38.50
2022-10-07T11:20:49.553Z,38.75
2022-10-07T11:21:54.834Z,38.45
2022-10-07T11:23:35.235Z,39.05
2022-10-07T11:24:57.140Z,39.04
2022-10-07T11:26:32.273Z,39.29
2022-10-07T11:27:37.125Z,38.74
2022-10-07T11:28:41.916Z,38.99
2022-10-07T11:29:58.567Z,38.75
2022-10-07T11:31:52.535Z,38.74
2022-10-07T11:33:11.429Z,38.91
2022-10-07T11:34:19.736Z,38.49
2022-10-07T11:35:32.111Z,38.37
2022-10-07T11:37:00.041Z,38.00
2022-10-07T11:38:14.498Z,38.63
2022-10-07T11:39:16.909Z,38.55
2022-10-07T11:40:20.153Z,38.30
2022-10-07T11:41:29.985Z,38.87
2022-10-07T11:42:40.457Z,38.55
2022-10-07T11:43:56.515Z,38.56
2022-10-07T11:45:02.703Z,39.00
2022-10-07T11:46:18.782Z,39.33
2022-10-07T11:47:27.971Z,38.86
2022-10-07T11:48:51.991Z,39.39
2022-10-07T11:50:02.494Z,38.82
2022-10-07T11:51:07.315Z,38.71
2022-10-07T11:52:19.670Z,38.66
2022-10-07T11:53:28.672Z,38.95
2022-10-07T11:54:41.920Z,39.44
2022-10-07T11:55:55.058Z,39.55
2022-10-07T11:57:00.655Z,39.55
2022-10-07T11:58:04.360Z,39.48
2022-10-07T11:59:07.654Z,39.45
2022-10-07T12:00:30.424Z,39.40
2022-10-07T12:01:35.494Z,39.22
2022-10-07T12:02:39.403Z,40.04
2022-10-07T12:03:41.761Z,39.74
2022-10-07T12:04:43.996Z,39.78
2022-10-07T12:05:49.113Z,40.02
2022-10-07T12:07:28.822Z,39.98
2022-10-07T12:08:40.654Z,40.19
2022-10-07T12:10:18.175Z,40.21
2022-10-07T12:11:23.068Z,40.32
2022-10-07T12:12:25.337Z,40.04
2022-10-07T12:13:39.133Z,39.58
2022-10-07T12:14:43.604Z,39.46
2022-10-07T12:15:51.060Z,39.62
2022-10-07T12:16:55.922Z,39.71
2022-10-07T12:18:26.284Z,39.57
2022-10-07T12:19:28.878Z,39.88
2022-10-07T12:20:44.974Z,39.47
2022-10-07T12:22:05.694Z,40.28
2022-10-07T12:23:17.458Z,40.36
2022-10-07T12:24:20.982Z,40.45
2022-10-07T12:25:32.504Z,39.78
2022-10-07T12:26:35.180Z,40.19
2022-10-07T12:27:37.626Z,40.31
2022-10-07T12:28:40.913Z,40.18
2022-10-07T12:30:00.689Z,39.83
2022-10-07T12:31:06.356Z,40.05
2022-10-07T12:32:52.168Z,40.33
2022-10-07T12:34:09.246Z,40.16
2022-10-07T12:35:29.797Z,40.11
2022-10-07T12:36:32.540Z,39.95
2022-10-07T12:37:50.228Z,39.94
2022-10-07T12:38:59.173Z,39.98
2022-10-07T12:40:10.583Z,40.49
2022-10-07T12:41:25.934Z,40.17
2022-10-07T12:42:29.862Z,39.41
2022-10-07T12:43:38.080Z,38.94
2022-10-07T12:44:48.918Z,39.10
2022-10-07T12:45:52.373Z,38.92
2022-10-07T12:47:12.729Z,39.17
2022-10-07T12:48:21.827Z,38.94
2022-10-07T12:49:36.837Z,39.21
2022-10-07T12:50:40.516Z,39.30
2022-10-07T12:51:44.683Z,39.40
2022-10-07T12:52:57.090Z,39.51
2022-10-07T12:54:00.375Z,39.63
2022-10-07T12:55:09.628Z,39.08
2022-10-07T12:56:21.163Z,38.95
2022-10-07T12:57:31.095Z,39.60
2022-10-07T12:59:10.304Z,39.20
2022-10-07T13:00:17.002Z,39.86
2022-10-07T13:01:49.543Z,39.81
2022-10-07T13:03:19.281Z,40.04
2022-10-07T13:04:39.203Z,40.30
2022-10-07T13:05:50.506Z,39.98
2022-10-07T13:07:20.528Z,40.10
2022-10-07T13:08:35.689Z,40.28
2022-10-07T13:09:44.162Z,39.49
2022-10-07T13:11:22.011Z,39.18
2022-10-07T13:12:51.086Z,39.63
2022-10-07T13:13:59.281Z,39.79
2022-10-07T13:15:26.448Z,40.36
2022-10-07T13:16:35.405Z,40.11
2022-10-07T13:18:03.204Z,40.15
2022-10-07T13:19:35.285Z,39.91
2022-10-07T13:20:51.092Z,40.35
2022-10-07T13:22:17.379Z,40.28
2022-10-07T13:23:26.206Z,40.40
2022-10-07T13:24:30.135Z,40.72
2022-10-07T13:25:33.317Z,40.65
2022-10-07T13:26:37.472Z,40.68
2022-10-07T13:27:42.076Z,40.55
2022-10-07T13:28:50.812Z,40.68
2022-10-07T13:29:54.100Z,40.43
2022-10-07T13:31:13.772Z,40.69
2022-10-07T13:32:24.731Z,40.91
2022-10-07T13:33:30.370Z,40.90
2022-10-07T13:34:33.593Z,40.91
2022-10-07T13:35:39.680Z,41.08
2022-10-07T13:36:44.675Z,40.95
2022-10-07T13:37:47.686Z,41.10
2022-10-07T13:38:57.258Z,40.69
2022-10-07T13:40:34.187Z,40.84
2022-10-07T13:41:37.788Z,41.03
2022-10-07T13:42:43.819Z,41.13
2022-10-07T13:43:47.572Z,40.42
2022-10-07T13:44:49.818Z,40.52
2022-10-07T13:45:52.422Z,40.54
2022-10-07T13:47:00.425Z,40.48
2022-10-07T13:48:03.300Z,40.64
2022-10-07T13:49:07.805Z,40.08
2022-10-07T13:50:16.620Z,40.39
2022-10-07T13:51:34.844Z,40.40
2022-10-07T13:52:44.685Z,40.19
2022-10-07T13:53:55.387Z,40.43
2022-10-07T13:54:57.651Z,40.34
2022-10-07T13:56:22.310Z,40.77
2022-10-07T13:57:27.405Z,40.35
2022-10-07T13:58:33.348Z,39.75
2022-10-07T13:59:36.821Z,39.37
2022-10-07T14:00:47.307Z,39.64
2022-10-07T14:01:52.415Z,39.58
2022-10-07T14:02:54.786Z,39.04
2022-10-07T14:04:34.269Z,39.74
2022-10-07T14:05:48.399Z,39.15
2022-10-07T14:07:01.434Z,39.34
2022-10-07T14:08:18.251Z,39.42
2022-10-07T14:09:45.119Z,39.48
2022-10-07T14:10:58.186Z,39.51
2022-10-07T14:12:14.796Z,39.62
2022-10-07T14:13:17.323Z,39.55
2022-10-07T14:14:33.117Z,39.91
2022-10-07T14:15:37.156Z,39.71
2022-10-07T14:16:40.274Z,39.64
2022-10-07T14:17:58.990Z,39.66
2022-10-07T14:19:01.256Z,39.63
2022-10-07T14:20:25.350Z,39.61
2022-10-07T14:21:28.335Z,39.52
2022-10-07T14:22:36.551Z,39.37
2022-10-07T14:23:38.835Z,39.67
2022-10-07T14:24:41.853Z,39.45
2022-10-07T14:25:59.252Z,39.82
2022-10-07T14:27:02.231Z,39.88
2022-10-07T14:28:16.907Z,39.63
2022-10-07T14:29:28.231Z,39.42
2022-10-07T14:30:56.320Z,40.03
2022-10-07T14:32:39.129Z,40.18
2022-10-07T14:34:17.046Z,39.42
2022-10-07T14:35:22.208Z,39.38
2022-10-07T14:36:24.659Z,39.11
2022-10-07T14:37:31.054Z,39.20
2022-10-07T14:38:36.434Z,39.71
2022-10-07T14:39:38.750Z,39.15
2022-10-07T14:40:41.088Z,38.99
2022-10-07T14:41:43.374Z,39.56
2022-10-07T14:42:46.107Z,39.66
2022-10-07T14:43:52.473Z,39.50
2022-10-07T14:44:57.239Z,39.72
2022-10-07T14:46:17.976Z,39.80
2022-10-07T14:47:25.105Z,39.47
2022-10-07T14:48:28.029Z,39.67
2022-10-07T14:49:30.302Z,39.92